sensor_id;sensor_type;location;lat;lon;timestamp;pressure;altitude;pressure_sealevel;temperature;humidity
63493;BME280;49638;47.526;10.028;2023-10-09T00:01:17;92535.41;;;13.52;75.13
63493;BME280;49638;47.526;10.028;2023-10-09T00:04:17;92521.25;;;13.46;74.97
63493;BME280;49638;47.526;10.028;2023-10-09T00:07:18;92518.81;;;13.45;74.99
63493;BME280;49638;47.526;10.028;2023-10-09T00:10:19;92529.78;;;13.48;74.67
63493;BME280;49638;47.526;10.028;2023-10-09T00:13:23;92531.84;;;13.46;74.64
63493;BME280;49638;47.526;10.028;2023-10-09T00:16:31;92511.41;;;13.30;74.92
63493;BME280;49638;47.526;10.028;2023-10-09T00:19:34;92517.75;;;13.29;74.94
63493;BME280;49638;47.526;10.028;2023-10-09T00:22:35;92525.81;;;13.34;75.01
63493;BME280;49638;47.526;10.028;2023-10-09T00:25:53;92524.69;;;13.30;75.03
63493;BME280;49638;47.526;10.028;2023-10-09T00:29:12;92529.50;;;13.33;74.87
63493;BME280;49638;47.526;10.028;2023-10-09T00:32:22;92522.81;;;13.31;75.10
63493;BME280;49638;47.526;10.028;2023-10-09T00:35:26;92527.59;;;13.29;74.79
63493;BME280;49638;47.526;10.028;2023-10-09T00:38:44;92521.94;;;13.25;75.01
63493;BME280;49638;47.526;10.028;2023-10-09T00:41:51;92517.88;;;13.22;74.99
63493;BME280;49638;47.526;10.028;2023-10-09T00:44:54;92517.22;;;13.15;75.00
63493;BME280;49638;47.526;10.028;2023-10-09T00:47:54;92522.88;;;13.19;75.19
63493;BME280;49638;47.526;10.028;2023-10-09T00:50:59;92512.47;;;13.17;75.11
63493;BME280;49638;47.526;10.028;2023-10-09T00:54:01;92515.72;;;13.19;74.97
63493;BME280;49638;47.526;10.028;2023-10-09T00:57:13;92503.16;;;13.15;74.87
63493;BME280;49638;47.526;10.028;2023-10-09T01:00:16;92506.84;;;13.14;75.08
63493;BME280;49638;47.526;10.028;2023-10-09T01:03:46;92500.41;;;13.10;75.28
63493;BME280;49638;47.526;10.028;2023-10-09T01:06:52;92492.69;;;13.08;75.03
63493;BME280;49638;47.526;10.028;2023-10-09T01:10:09;92479.91;;;13.05;75.12
63493;BME280;49638;47.526;10.028;2023-10-09T01:13:09;92493.34;;;13.15;75.05
63493;BME280;49638;47.526;10.028;2023-10-09T01:16:10;92479.97;;;13.10;75.18
63493;BME280;49638;47.526;10.028;2023-10-09T01:19:15;92486.41;;;13.14;75.07
63493;BME280;49638;47.526;10.028;2023-10-09T01:22:23;92482.72;;;13.15;75.11
63493;BME280;49638;47.526;10.028;2023-10-09T01:25:24;92483.53;;;13.16;75.18
63493;BME280;49638;47.526;10.028;2023-10-09T01:28:24;92487.72;;;13.12;75.25
63493;BME280;49638;47.526;10.028;2023-10-09T01:31:26;92472.97;;;13.04;75.04
63493;BME280;49638;47.526;10.028;2023-10-09T01:34:28;92476.28;;;13.11;74.91
63493;BME280;49638;47.526;10.028;2023-10-09T01:37:38;92469.84;;;13.07;74.97
63493;BME280;49638;47.526;10.028;2023-10-09T01:40:38;92471.38;;;13.03;75.18
63493;BME280;49638;47.526;10.028;2023-10-09T01:43:38;92470.81;;;13.01;75.31
63493;BME280;49638;47.526;10.028;2023-10-09T01:46:39;92471.84;;;13.00;75.31
63493;BME280;49638;47.526;10.028;2023-10-09T01:49:42;92461.16;;;12.95;75.55
63493;BME280;49638;47.526;10.028;2023-10-09T01:52:43;92466.47;;;12.95;75.27
63493;BME280;49638;47.526;10.028;2023-10-09T01:55:43;92456.78;;;12.89;75.32
63493;BME280;49638;47.526;10.028;2023-10-09T01:58:45;92452.75;;;12.86;75.39
63493;BME280;49638;47.526;10.028;2023-10-09T02:01:47;92466.13;;;12.91;75.49
63493;BME280;49638;47.526;10.028;2023-10-09T02:04:48;92460.50;;;12.88;75.65
63493;BME280;49638;47.526;10.028;2023-10-09T02:07:48;92458.53;;;12.83;75.50
63493;BME280;49638;47.526;10.028;2023-10-09T02:10:51;92443.81;;;12.75;75.50
63493;BME280;49638;47.526;10.028;2023-10-09T02:13:55;92431.97;;;12.66;75.17
63493;BME280;49638;47.526;10.028;2023-10-09T02:17:01;92451.78;;;12.75;75.54
63493;BME280;49638;47.526;10.028;2023-10-09T02:20:18;92453.84;;;12.73;75.44
63493;BME280;49638;47.526;10.028;2023-10-09T02:23:29;92453.06;;;12.73;75.48
63493;BME280;49638;47.526;10.028;2023-10-09T02:26:48;92443.38;;;12.67;75.32
63493;BME280;49638;47.526;10.028;2023-10-09T02:29:51;92433.84;;;12.66;75.45
63493;BME280;49638;47.526;10.028;2023-10-09T02:32:54;92448.22;;;12.70;75.58
63493;BME280;49638;47.526;10.028;2023-10-09T02:36:07;92449.53;;;12.67;75.58
63493;BME280;49638;47.526;10.028;2023-10-09T02:39:07;92428.13;;;12.57;75.70
63493;BME280;49638;47.526;10.028;2023-10-09T02:42:21;92448.94;;;12.65;74.68
63493;BME280;49638;47.526;10.028;2023-10-09T02:45:26;92436.94;;;12.63;75.35
63493;BME280;49638;47.526;10.028;2023-10-09T02:48:34;92436.34;;;12.72;75.07
63493;BME280;49638;47.526;10.028;2023-10-09T02:51:36;92440.03;;;12.71;75.24
63493;BME280;49638;47.526;10.028;2023-10-09T02:54:45;92439.25;;;12.71;nan
63493;BME280;49638;47.526;10.028;2023-10-09T02:57:47;92433.13;;;12.70;75.22
63493;BME280;49638;47.526;10.028;2023-10-09T03:00:51;92423.47;;;12.64;74.95
63493;BME280;49638;47.526;10.028;2023-10-09T03:03:52;92433.34;;;12.69;75.10
63493;BME280;49638;47.526;10.028;2023-10-09T03:06:52;92425.22;;;12.59;75.38
63493;BME280;49638;47.526;10.028;2023-10-09T03:09:53;92433.50;;;12.62;75.32
63493;BME280;49638;47.526;10.028;2023-10-09T03:12:53;92428.19;;;12.62;75.01
63493;BME280;49638;47.526;10.028;2023-10-09T03:15:53;92415.41;;;12.59;74.93
63493;BME280;49638;47.526;10.028;2023-10-09T03:18:54;92418.66;;;12.61;75.08
63493;BME280;49638;47.526;10.028;2023-10-09T03:21:55;92408.19;;;12.54;74.92
63493;BME280;49638;47.526;10.028;2023-10-09T03:24:58;92423.47;;;12.64;75.14
63493;BME280;49638;47.526;10.028;2023-10-09T03:27:58;92419.69;;;12.60;74.93
63493;BME280;49638;47.526;10.028;2023-10-09T03:30:59;92415.19;;;12.61;74.81
63493;BME280;49638;47.526;10.028;2023-10-09T03:34:03;92414.72;;;12.64;74.82
63493;BME280;49638;47.526;10.028;2023-10-09T03:37:03;92405.28;;;12.56;74.88
63493;BME280;49638;47.526;10.028;2023-10-09T03:40:20;92407.72;;;12.58;74.80
63493;BME280;49638;47.526;10.028;2023-10-09T03:43:22;92409.56;;;12.57;75.09
63493;BME280;49638;47.526;10.028;2023-10-09T03:46:22;92412.69;;;12.54;74.92
63493;BME280;49638;47.526;10.028;2023-10-09T03:49:26;92406.34;;;12.55;74.56
63493;BME280;49638;47.526;10.028;2023-10-09T03:52:26;92398.84;;;12.52;74.86
63493;BME280;49638;47.526;10.028;2023-10-09T03:55:31;92398.94;;;12.57;74.70
63493;BME280;49638;47.526;10.028;2023-10-09T03:58:32;92398.47;;;12.60;74.54
63493;BME280;49638;47.526;10.028;2023-10-09T04:01:34;92396.06;;;12.59;74.46
63493;BME280;49638;47.526;10.028;2023-10-09T04:04:40;92402.94;;;12.60;74.38
63493;BME280;49638;47.526;10.028;2023-10-09T04:07:47;92400.78;;;12.57;74.44
63493;BME280;49638;47.526;10.028;2023-10-09T04:10:49;92402.88;;;12.54;74.61
63493;BME280;49638;47.526;10.028;2023-10-09T04:13:52;92395.16;;;12.53;74.43
63493;BME280;49638;47.526;10.028;2023-10-09T04:17:00;92393.66;;;12.57;74.18
63493;BME280;49638;47.526;10.028;2023-10-09T04:20:06;92394.19;;;12.59;74.13
63493;BME280;49638;47.526;10.028;2023-10-09T04:23:18;92393.41;;;12.59;74.02
63493;BME280;49638;47.526;10.028;2023-10-09T04:26:33;92391.06;;;12.62;73.82
63493;BME280;49638;47.526;10.028;2023-10-09T04:29:35;92377.97;;;12.55;73.83
63493;BME280;49638;47.526;10.028;2023-10-09T04:32:38;92383.13;;;12.62;73.78
63493;BME280;49638;47.526;10.028;2023-10-09T04:35:40;92390.03;;;12.63;74.08
63493;BME280;49638;47.526;10.028;2023-10-09T04:38:49;92387.38;;;12.63;73.95
63493;BME280;49638;47.526;10.028;2023-10-09T04:42:01;92380.13;;;12.59;74.08
63493;BME280;49638;47.526;10.028;2023-10-09T04:45:20;92382.91;;;12.64;73.82
63493;BME280;49638;47.526;10.028;2023-10-09T04:48:41;92385.56;;;12.64;73.83
63493;BME280;49638;47.526;10.028;2023-10-09T04:51:45;92386.81;;;12.61;74.00
63493;BME280;49638;47.526;10.028;2023-10-09T04:55:02;92380.47;;;12.62;73.75
63493;BME280;49638;47.526;10.028;2023-10-09T04:58:09;92383.69;;;12.64;73.79
63493;BME280;49638;47.526;10.028;2023-10-09T05:01:12;92378.94;;;12.66;73.26
63493;BME280;49638;47.526;10.028;2023-10-09T05:04:13;92373.88;;;12.65;73.36
63493;BME280;49638;47.526;10.028;2023-10-09T05:07:35;92387.00;;;12.71;73.71
63493;BME280;49638;47.526;10.028;2023-10-09T05:10:55;92386.19;;;12.71;73.60
63493;BME280;49638;47.526;10.028;2023-10-09T05:13:58;92397.81;;;12.70;71.64
63493;BME280;49638;47.526;10.028;2023-10-09T05:17:11;92389.41;;;12.73;73.59
63493;BME280;49638;47.526;10.028;2023-10-09T05:20:15;92388.13;;;12.75;73.43
63493;BME280;49638;47.526;10.028;2023-10-09T05:23:22;92393.69;;;12.74;73.13
63493;BME280;49638;47.526;10.028;2023-10-09T05:26:26;92395.81;;;12.77;71.16
63493;BME280;49638;47.526;10.028;2023-10-09T05:29:50;92400.34;;;12.76;72.87
63493;BME280;49638;47.526;10.028;2023-10-09T05:32:59;92395.59;;;12.78;72.46
63493;BME280;49638;47.526;10.028;2023-10-09T05:36:08;92391.72;;;12.69;72.50
63493;BME280;49638;47.526;10.028;2023-10-09T05:39:20;92399.31;;;12.77;72.57
63493;BME280;49638;47.526;10.028;2023-10-09T05:42:41;92387.94;;;12.65;72.47
63493;BME280;49638;47.526;10.028;2023-10-09T05:45:41;92392.53;;;12.70;72.54
63493;BME280;49638;47.526;10.028;2023-10-09T05:49:00;92380.00;;;12.65;72.92
63493;BME280;49638;47.526;10.028;2023-10-09T05:52:09;92397.59;;;12.71;72.75
63493;BME280;49638;47.526;10.028;2023-10-09T05:55:31;92402.59;;;12.68;72.57
63493;BME280;49638;47.526;10.028;2023-10-09T05:58:50;92379.91;;;12.60;72.63
63493;BME280;49638;47.526;10.028;2023-10-09T06:02:09;92397.59;;;12.71;72.76
63493;BME280;49638;47.526;10.028;2023-10-09T06:05:28;92400.81;;;12.73;72.49
63493;BME280;49638;47.526;10.028;2023-10-09T06:08:40;92397.13;;;12.74;72.57
63493;BME280;49638;47.526;10.028;2023-10-09T06:11:42;92389.41;;;12.73;72.53
63493;BME280;49638;47.526;10.028;2023-10-09T06:14:49;92396.06;;;12.75;72.10
63493;BME280;49638;47.526;10.028;2023-10-09T06:17:58;92410.63;;;12.90;71.90
63493;BME280;49638;47.526;10.028;2023-10-09T06:21:18;92408.09;;;12.95;71.56
63493;BME280;49638;47.526;10.028;2023-10-09T06:24:38;92414.03;;;13.02;71.24
63493;BME280;49638;47.526;10.028;2023-10-09T06:27:43;92401.81;;;13.01;71.22
63493;BME280;49638;47.526;10.028;2023-10-09T06:30:49;92421.22;;;13.18;71.54
63493;BME280;49638;47.526;10.028;2023-10-09T06:33:49;92422.91;;;13.24;70.79
63493;BME280;49638;47.526;10.028;2023-10-09T06:37:13;92416.16;;;13.34;70.88
63493;BME280;49638;47.526;10.028;2023-10-09T06:40:25;92408.81;;;13.41;70.75
63493;BME280;49638;47.526;10.028;2023-10-09T06:43:37;92410.50;;;13.47;70.59
63493;BME280;49638;47.526;10.028;2023-10-09T06:46:37;92408.50;;;13.54;70.47
63493;BME280;49638;47.526;10.028;2023-10-09T06:49:44;92394.28;;;13.65;70.20
63493;BME280;49638;47.526;10.028;2023-10-09T06:53:04;92407.88;;;13.86;69.99
63493;BME280;49638;47.526;10.028;2023-10-09T06:56:10;92415.84;;;14.08;69.87
63493;BME280;49638;47.526;10.028;2023-10-09T06:59:23;92408.81;;;14.18;69.35
63493;BME280;49638;47.526;10.028;2023-10-09T07:02:24;92426.59;;;14.40;69.53
63493;BME280;49638;47.526;10.028;2023-10-09T07:05:27;92417.72;;;14.51;69.29
63493;BME280;49638;47.526;10.028;2023-10-09T07:08:47;92424.16;;;14.55;69.35
63493;BME280;49638;47.526;10.028;2023-10-09T07:12:00;92426.16;;;14.70;69.30
63493;BME280;49638;47.526;10.028;2023-10-09T07:15:03;92428.03;;;14.70;68.98
63493;BME280;49638;47.526;10.028;2023-10-09T07:18:23;92425.53;;;14.85;68.82
63493;BME280;49638;47.526;10.028;2023-10-09T07:21:40;92435.16;;;14.91;68.30
63493;BME280;49638;47.526;10.028;2023-10-09T07:24:53;92442.69;;;14.99;68.38
63493;BME280;49638;47.526;10.028;2023-10-09T07:27:56;92441.94;;;15.04;68.14
63493;BME280;49638;47.526;10.028;2023-10-09T07:31:00;92441.72;;;15.10;68.05
63493;BME280;49638;47.526;10.028;2023-10-09T07:34:00;92437.56;;;15.20;67.70
63493;BME280;49638;47.526;10.028;2023-10-09T07:37:06;92450.41;;;15.28;67.51
63493;BME280;49638;47.526;10.028;2023-10-09T07:40:07;92443.56;;;15.37;67.35
63493;BME280;49638;47.526;10.028;2023-10-09T07:43:08;92443.34;;;15.44;66.51
63493;BME280;49638;47.526;10.028;2023-10-09T07:46:19;92455.97;;;15.58;66.65
63493;BME280;49638;47.526;10.028;2023-10-09T07:49:52;92466.13;;;15.61;66.67
63493;BME280;49638;47.526;10.028;2023-10-09T07:52:53;92456.06;;;15.69;66.82
63493;BME280;49638;47.526;10.028;2023-10-09T07:56:13;92485.00;;;15.87;65.94
63493;BME280;49638;47.526;10.028;2023-10-09T07:59:21;92486.59;;;15.88;66.12
63493;BME280;49638;47.526;10.028;2023-10-09T08:02:24;92479.97;;;15.91;66.51
63493;BME280;49638;47.526;10.028;2023-10-09T08:05:33;92494.38;;;15.95;65.88
63493;BME280;49638;47.526;10.028;2023-10-09T08:08:33;92495.75;;;15.97;66.03
63493;BME280;49638;47.526;10.028;2023-10-09T08:11:33;92487.19;;;15.95;65.82
63493;BME280;49638;47.526;10.028;2023-10-09T08:14:42;92495.28;;;16.11;65.50
63493;BME280;49638;47.526;10.028;2023-10-09T08:17:54;92498.78;;;16.16;65.06
63493;BME280;49638;47.526;10.028;2023-10-09T08:20:54;92490.00;;;16.21;66.00
63493;BME280;49638;47.526;10.028;2023-10-09T08:23:57;92497.28;;;16.36;65.90
63493;BME280;49638;47.526;10.028;2023-10-09T08:27:06;92502.41;;;16.42;66.16
63493;BME280;49638;47.526;10.028;2023-10-09T08:30:27;92489.59;;;16.44;66.02
63493;BME280;49638;47.526;10.028;2023-10-09T08:33:27;92490.69;;;16.48;65.81
63493;BME280;49638;47.526;10.028;2023-10-09T08:36:28;92506.22;;;16.62;65.31
63493;BME280;49638;47.526;10.028;2023-10-09T08:39:36;92499.81;;;16.63;64.88
63493;BME280;49638;47.526;10.028;2023-10-09T08:42:36;92497.66;;;16.60;64.39
63493;BME280;49638;47.526;10.028;2023-10-09T08:45:38;92499.88;;;16.73;64.01
63493;BME280;49638;47.526;10.028;2023-10-09T08:48:42;92504.72;;;16.81;63.84
63493;BME280;49638;47.526;10.028;2023-10-09T08:51:42;92507.44;;;16.91;64.16
63493;BME280;49638;47.526;10.028;2023-10-09T08:54:43;92494.09;;;16.96;64.08
63493;BME280;49638;47.526;10.028;2023-10-09T08:57:47;92496.00;;;17.06;64.14
63493;BME280;49638;47.526;10.028;2023-10-09T09:00:48;92500.06;;;17.29;63.23
63493;BME280;49638;47.526;10.028;2023-10-09T09:03:49;92506.47;;;17.33;64.66
63493;BME280;49638;47.526;10.028;2023-10-09T09:06:50;92512.13;;;17.47;64.64
63493;BME280;49638;47.526;10.028;2023-10-09T09:09:57;92511.31;;;17.57;63.63
63493;BME280;49638;47.526;10.028;2023-10-09T09:13:03;92510.78;;;17.65;64.36
63493;BME280;49638;47.526;10.028;2023-10-09T09:16:04;92501.44;;;17.67;64.20
63493;BME280;49638;47.526;10.028;2023-10-09T09:19:05;92493.41;;;17.72;64.03
63493;BME280;49638;47.526;10.028;2023-10-09T09:22:09;92498.53;;;17.94;64.43
63493;BME280;49638;47.526;10.028;2023-10-09T09:25:12;92497.44;;;18.06;64.54
63493;BME280;49638;47.526;10.028;2023-10-09T09:28:16;92509.19;;;18.20;64.70
63493;BME280;49638;47.526;10.028;2023-10-09T09:31:21;92504.34;;;18.32;64.86
63493;BME280;49638;47.526;10.028;2023-10-09T09:34:22;92502.19;;;18.39;64.77
63493;BME280;49638;47.526;10.028;2023-10-09T09:37:29;92503.25;;;18.43;64.98
63493;BME280;49638;47.526;10.028;2023-10-09T09:40:32;92504.59;;;18.51;65.08
63493;BME280;49638;47.526;10.028;2023-10-09T09:43:41;92496.25;;;18.58;65.10
63493;BME280;49638;47.526;10.028;2023-10-09T09:46:45;92498.94;;;18.63;64.67
63493;BME280;49638;47.526;10.028;2023-10-09T09:49:46;92497.28;;;18.67;64.99
63493;BME280;49638;47.526;10.028;2023-10-09T09:52:47;92490.88;;;18.73;64.92
63493;BME280;49638;47.526;10.028;2023-10-09T09:55:54;92492.47;;;18.69;64.66
63493;BME280;49638;47.526;10.028;2023-10-09T09:59:01;92495.94;;;18.80;64.10
63493;BME280;49638;47.526;10.028;2023-10-09T10:02:02;92495.91;;;18.90;63.03
63493;BME280;49638;47.526;10.028;2023-10-09T10:05:11;92486.78;;;18.91;62.42
63493;BME280;49638;47.526;10.028;2023-10-09T10:08:16;92497.19;;;19.03;62.29
63493;BME280;49638;47.526;10.028;2023-10-09T10:11:45;92508.41;;;19.05;60.22
63493;BME280;49638;47.526;10.028;2023-10-09T10:14:52;92497.72;;;19.05;61.39
63493;BME280;49638;47.526;10.028;2023-10-09T10:21:13;92504.13;;;19.09;60.75
63493;BME280;49638;47.526;10.028;2023-10-09T10:24:41;92500.63;;;19.13;58.47
63493;BME280;49638;47.526;10.028;2023-10-09T10:28:20;92497.91;;;19.19;59.75
63493;BME280;49638;47.526;10.028;2023-10-09T10:31:59;92502.44;;;19.23;59.02
63493;BME280;49638;47.526;10.028;2023-10-09T10:35:07;92502.97;;;19.25;61.91
63493;BME280;49638;47.526;10.028;2023-10-09T10:41:34;92502.97;;;19.25;61.94
63493;BME280;49638;47.526;10.028;2023-10-09T10:44:50;92501.91;;;19.26;61.87
63493;BME280;49638;47.526;10.028;2023-10-09T10:47:53;92501.84;;;19.31;61.60
63493;BME280;49638;47.526;10.028;2023-10-09T10:50:58;92487.94;;;19.29;61.41
63493;BME280;49638;47.526;10.028;2023-10-09T10:53:58;92492.97;;;19.36;61.29
63493;BME280;49638;47.526;10.028;2023-10-09T10:57:00;92491.06;;;19.42;61.01
63493;BME280;49638;47.526;10.028;2023-10-09T11:00:00;92487.03;;;19.44;59.91
63493;BME280;49638;47.526;10.028;2023-10-09T11:03:19;92488.63;;;19.50;58.86
63493;BME280;49638;47.526;10.028;2023-10-09T11:06:25;92497.97;;;19.53;59.65
63493;BME280;49638;47.526;10.028;2023-10-09T11:09:50;92487.47;;;19.56;56.32
63493;BME280;49638;47.526;10.028;2023-10-09T11:13:05;92480.28;;;19.52;59.23
63493;BME280;49638;47.526;10.028;2023-10-09T11:16:09;92486.13;;;19.59;59.27
63493;BME280;49638;47.526;10.028;2023-10-09T11:19:21;92478.88;;;19.65;57.00
63493;BME280;49638;47.526;10.028;2023-10-09T11:22:28;92479.13;;;19.68;58.10
63493;BME280;49638;47.526;10.028;2023-10-09T11:25:28;92478.81;;;19.75;58.06
63493;BME280;49638;47.526;10.028;2023-10-09T11:28:30;92468.88;;;19.75;57.76
63493;BME280;49638;47.526;10.028;2023-10-09T11:35:14;92468.34;;;19.73;55.27
63493;BME280;49638;47.526;10.028;2023-10-09T11:38:21;92474.25;;;19.75;57.19
63493;BME280;49638;47.526;10.028;2023-10-09T11:41:25;92469.16;;;19.74;56.91
63493;BME280;49638;47.526;10.028;2023-10-09T11:44:40;92464.88;;;19.73;54.89
63493;BME280;49638;47.526;10.028;2023-10-09T11:47:41;92464.88;;;19.73;57.29
63493;BME280;49638;47.526;10.028;2023-10-09T11:50:54;92466.72;;;19.77;57.40
63493;BME280;49638;47.526;10.028;2023-10-09T11:53:54;92456.25;;;19.81;57.16
63493;BME280;49638;47.526;10.028;2023-10-09T11:56:58;92453.25;;;19.82;56.47
63493;BME280;49638;47.526;10.028;2023-10-09T12:00:04;92463.72;;;19.84;56.82
63493;BME280;49638;47.526;10.028;2023-10-09T12:03:27;92452.69;;;19.85;56.87
63493;BME280;49638;47.526;10.028;2023-10-09T12:06:29;92448.66;;;19.88;56.50
63493;BME280;49638;47.526;10.028;2023-10-09T12:09:33;92434.44;;;19.88;56.98
63493;BME280;49638;47.526;10.028;2023-10-09T12:12:34;92445.09;;;19.98;57.04
63493;BME280;49638;47.526;10.028;2023-10-09T12:15:35;92445.31;;;20.01;56.65
63493;BME280;49638;47.526;10.028;2023-10-09T12:18:38;92447.16;;;20.06;56.28
63493;BME280;49638;47.526;10.028;2023-10-09T12:21:39;92434.25;;;20.08;56.68
63493;BME280;49638;47.526;10.028;2023-10-09T12:24:43;92432.38;;;20.08;56.65
63493;BME280;49638;47.526;10.028;2023-10-09T12:27:43;92437.44;;;20.10;56.49
63493;BME280;49638;47.526;10.028;2023-10-09T12:30:43;92442.31;;;20.08;56.31
63493;BME280;49638;47.526;10.028;2023-10-09T12:33:47;92438.00;;;20.07;56.29
63493;BME280;49638;47.526;10.028;2023-10-09T12:36:49;92436.41;;;20.06;56.32
63493;BME280;49638;47.526;10.028;2023-10-09T12:39:49;92439.16;;;20.01;56.38
63493;BME280;49638;47.526;10.028;2023-10-09T12:42:55;92435.38;;;20.02;56.50
63493;BME280;49638;47.526;10.028;2023-10-09T12:45:59;92437.53;;;20.00;56.58
63493;BME280;49638;47.526;10.028;2023-10-09T12:48:59;92445.88;;;19.98;56.39
63493;BME280;49638;47.526;10.028;2023-10-09T12:52:01;92445.66;;;19.95;56.78
63493;BME280;49638;47.526;10.028;2023-10-09T12:55:01;92445.66;;;19.95;56.65
63493;BME280;49638;47.526;10.028;2023-10-09T12:58:08;92443.53;;;19.92;56.99
63493;BME280;49638;47.526;10.028;2023-10-09T13:01:09;92429.19;;;19.77;57.06
63493;BME280;49638;47.526;10.028;2023-10-09T13:04:11;92443.06;;;19.84;57.12
63493;BME280;49638;47.526;10.028;2023-10-09T13:07:17;92436.13;;;19.78;57.28
63493;BME280;49638;47.526;10.028;2023-10-09T13:10:23;92439.91;;;19.77;57.30
63493;BME280;49638;47.526;10.028;2023-10-09T13:13:28;92434.53;;;19.77;57.06
63493;BME280;49638;47.526;10.028;2023-10-09T13:16:47;92433.75;;;19.77;57.29
63493;BME280;49638;47.526;10.028;2023-10-09T13:19:50;92427.09;;;19.69;57.50
63493;BME280;49638;47.526;10.028;2023-10-09T13:22:50;92424.94;;;19.71;57.52
63493;BME280;49638;47.526;10.028;2023-10-09T13:25:53;92442.06;;;19.75;57.60
63493;BME280;49638;47.526;10.028;2023-10-09T13:28:54;92437.22;;;19.77;57.49
63493;BME280;49638;47.526;10.028;2023-10-09T13:31:55;92437.78;;;19.74;57.03
63493;BME280;49638;47.526;10.028;2023-10-09T13:35:02;92434.56;;;19.72;56.78
63493;BME280;49638;47.526;10.028;2023-10-09T13:38:04;92433.25;;;19.70;56.93
63493;BME280;49638;47.526;10.028;2023-10-09T13:41:08;92429.25;;;19.67;57.10
63493;BME280;49638;47.526;10.028;2023-10-09T13:44:12;92430.63;;;19.65;56.78
63493;BME280;49638;47.526;10.028;2023-10-09T13:47:13;92435.72;;;19.61;56.60
63493;BME280;49638;47.526;10.028;2023-10-09T13:50:19;92428.78;;;19.55;56.94
63493;BME280;49638;47.526;10.028;2023-10-09T13:53:21;92431.00;;;19.48;57.15
63493;BME280;49638;47.526;10.028;2023-10-09T13:56:24;92436.91;;;19.45;57.16
63493;BME280;49638;47.526;10.028;2023-10-09T13:59:27;92447.63;;;19.45;57.19
63493;BME280;49638;47.526;10.028;2023-10-09T14:02:27;92450.59;;;19.43;56.92
63493;BME280;49638;47.526;10.028;2023-10-09T14:05:28;92444.72;;;19.41;57.11
63493;BME280;49638;47.526;10.028;2023-10-09T14:08:28;92430.56;;;19.30;57.39
63493;BME280;49638;47.526;10.028;2023-10-09T14:11:29;92447.16;;;19.37;57.53
63493;BME280;49638;47.526;10.028;2023-10-09T14:14:30;92430.34;;;19.27;57.86
63493;BME280;49638;47.526;10.028;2023-10-09T14:17:31;92430.56;;;19.30;58.18
63493;BME280;49638;47.526;10.028;2023-10-09T14:20:31;92418.81;;;19.26;59.05
63493;BME280;49638;47.526;10.028;2023-10-09T14:23:31;92409.72;;;19.22;59.81
63493;BME280;49638;47.526;10.028;2023-10-09T14:26:35;92394.22;;;19.19;60.11
63493;BME280;49638;47.526;10.028;2023-10-09T14:29:35;92387.28;;;19.13;60.48
63493;BME280;49638;47.526;10.028;2023-10-09T14:32:38;92369.41;;;19.03;60.61
63493;BME280;49638;47.526;10.028;2023-10-09T14:35:45;92390.22;;;19.11;60.51
63493;BME280;49638;47.526;10.028;2023-10-09T14:38:46;92365.88;;;19.08;60.32
63493;BME280;49638;47.526;10.028;2023-10-09T14:41:47;92331.06;;;19.08;59.90
63493;BME280;49638;47.526;10.028;2023-10-09T14:44:47;92332.91;;;19.12;58.62
63493;BME280;49638;47.526;10.028;2023-10-09T14:47:47;92323.81;;;19.08;58.28
63493;BME280;49638;47.526;10.028;2023-10-09T14:50:48;92335.84;;;19.11;58.48
63493;BME280;49638;47.526;10.028;2023-10-09T14:53:49;92339.94;;;19.03;58.83
63493;BME280;49638;47.526;10.028;2023-10-09T14:56:49;92332.69;;;19.04;58.62
63493;BME280;49638;47.526;10.028;2023-10-09T14:59:50;92338.81;;;19.09;58.51
63493;BME280;49638;47.526;10.028;2023-10-09T15:02:52;92353.00;;;19.10;58.61
63493;BME280;49638;47.526;10.028;2023-10-09T15:05:52;92362.69;;;19.06;59.16
63493;BME280;49638;47.526;10.028;2023-10-09T15:08:57;92349.84;;;19.03;59.26
63493;BME280;49638;47.526;10.028;2023-10-09T15:11:58;92350.13;;;19.01;58.22
63493;BME280;49638;47.526;10.028;2023-10-09T15:14:58;92348.28;;;18.97;59.52
63493;BME280;49638;47.526;10.028;2023-10-09T15:17:59;92352.56;;;18.98;59.30
63493;BME280;49638;47.526;10.028;2023-10-09T15:20:59;92340.28;;;18.91;59.54
63493;BME280;49638;47.526;10.028;2023-10-09T15:24:00;92350.47;;;18.89;59.79
63493;BME280;49638;47.526;10.028;2023-10-09T15:27:00;92352.88;;;18.91;59.66
63493;BME280;49638;47.526;10.028;2023-10-09T15:30:00;92357.97;;;18.87;59.94
63493;BME280;49638;47.526;10.028;2023-10-09T15:33:00;92351.28;;;18.85;60.21
63493;BME280;49638;47.526;10.028;2023-10-09T15:36:09;92341.66;;;18.84;60.52
63493;BME280;49638;47.526;10.028;2023-10-09T15:39:11;92336.13;;;18.75;60.72
63493;BME280;49638;47.526;10.028;2023-10-09T15:42:11;92347.88;;;18.79;60.95
63493;BME280;49638;47.526;10.028;2023-10-09T15:45:13;92347.34;;;18.77;61.32
63493;BME280;49638;47.526;10.028;2023-10-09T15:48:14;92360.22;;;18.75;61.28
63493;BME280;49638;47.526;10.028;2023-10-09T15:51:15;92351.94;;;18.72;61.61
63493;BME280;49638;47.526;10.028;2023-10-09T15:54:15;92351.69;;;18.63;61.44
63493;BME280;49638;47.526;10.028;2023-10-09T15:57:19;92357.03;;;18.63;61.99
63493;BME280;49638;47.526;10.028;2023-10-09T16:00:21;92349.00;;;18.58;61.86
63493;BME280;49638;47.526;10.028;2023-10-09T16:03:21;92348.50;;;18.51;61.92
63493;BME280;49638;47.526;10.028;2023-10-09T16:06:24;92351.22;;;18.46;61.71
63493;BME280;49638;47.526;10.028;2023-10-09T16:09:27;92351.25;;;18.40;61.74
63493;BME280;49638;47.526;10.028;2023-10-09T16:12:29;92359.56;;;18.34;62.06
63493;BME280;49638;47.526;10.028;2023-10-09T16:15:30;92359.34;;;18.25;62.57
63493;BME280;49638;47.526;10.028;2023-10-09T16:18:32;92349.50;;;18.15;62.63
63493;BME280;49638;47.526;10.028;2023-10-09T16:21:34;92354.03;;;18.15;62.69